Time;durP1;ratioP1;P1;durP2;ratioP2;P2;SDS_P1;SDS_P2;PMS_P1;PMS_P2;Temp;Humidity;BMP_temperature;BMP_pressure;BME280_temperature;BME280_humidity;BME280_pressure;Samples;Min_cycle;Max_cycle;Signal;HPM_P1;HPM_P2
2021/05/01 00:00:07;;;;;;;14.10;9.60;;;;;;;9.26;93.51;92119.50;6227599;22;20021;-92
2021/05/01 00:03:07;;;;;;;16.80;9.38;;;;;;;9.27;93.20;92116.56;6212702;22;20105;-91
2021/05/01 00:05:51;;;;;;;;;;;;;;;9.26;92.67;92117.66;6231442;22;20028;-93
2021/05/01 00:08:50;;;;;;;12.98;8.90;;;;;;;9.09;92.34;92080.84;6213032;22;19912;-91
2021/05/01 00:12:02;;;;;;;12.90;8.70;;;;;;;9.10;92.32;92079.78;6218761;22;20104;-92
2021/05/01 00:18:41;;;;;;;14.23;8.88;;;;;;;9.23;92.62;92099.94;6223600;22;20051;-92
2021/05/01 00:25:08;;;;;;;16.85;8.68;;;;;;;9.10;92.94;92066.75;6144538;23;20383;-92
2021/05/01 00:27:58;;;;;;;;;;;;;;;;;;;;;
2021/05/01 00:30:39;;;;;;;16.58;9.27;;;;;;;9.04;92.65;92047.00;6151087;23;20093;-92
2021/05/01 00:33:43;;;;;;;;;;;;;;;;;;;;;
2021/05/01 00:36:28;;;;;;;16.20;9.60;;;;;;;9.04;93.04;92052.22;6254887;22;20071;-92
2021/05/01 00:39:33;;;;;;;17.75;10.70;;;;;;;9.09;93.34;92055.50;6195250;22;20026;-93
2021/05/01 00:45:24;;;;;;;15.82;9.88;;;;;;;9.05;93.13;92051.94;6223241;22;20090;-92
2021/05/01 00:48:23;;;;;;;16.48;9.20;;;;;;;9.32;93.13;92089.59;6238271;22;20018;-92
2021/05/01 00:51:17;;;;;;;14.50;9.68;;;;;;;9.05;92.78;92053.75;6224454;22;20082;-92
2021/05/01 00:54:14;;;;;;;15.73;10.38;;;;;;;9.32;92.85;92090.38;6168878;22;20096;-91
2021/05/01 01:00:39;;;;;;;14.77;9.23;;;;;;;9.19;93.01;92067.63;6235534;22;20443;-92
2021/05/01 01:07:01;;;;;;;16.27;9.63;;;;;;;9.04;93.03;92047.00;6194268;22;20026;-92
2021/05/01 01:10:22;;;;;;;16.35;9.52;;;;;;;9.06;93.28;92055.31;6218169;22;20096;-92
2021/05/01 01:17:07;;;;;;;;;;;;;;;;;;;;;
2021/05/01 01:23:31;;;;;;;;;;;;;;;;;;;;;
2021/05/01 01:26:40;;;;;;;13.48;8.43;;;;;;;9.21;92.93;92062.91;6152368;23;20123;-91
2021/05/01 01:29:29;;;;;;;14.63;8.13;;;;;;;9.00;93.04;92028.50;6238400;22;20040;-92
2021/05/01 01:32:55;;;;;;;14.25;8.32;;;;;;;9.02;93.06;92028.22;6205009;22;20028;-92
2021/05/01 01:35:32;;;;;;;16.52;8.70;;;;;;;9.04;92.82;92026.09;6230497;22;20048;-91
2021/05/01 01:38:44;;;;;;;13.43;8.82;;;;;;;9.03;93.12;92022.72;6230190;22;20064;-91
2021/05/01 01:41:42;;;;;;;;;;;;;;;;;;;;;
2021/05/01 01:44:41;;;;;;;12.70;8.35;;;;;;;9.01;93.32;92026.69;6255956;22;20028;-92
2021/05/01 01:54:28;;;;;;;42.88;11.68;;;;;;;8.87;94.02;92016.97;6157640;23;20260;-91
2021/05/01 01:57:17;;;;;;;386.25;17.15;;;;;;;8.81;94.94;92022.56;6230156;22;20047;-92
2021/05/01 02:00:37;;;;;;;;;;;;;;;;;;;;;
2021/05/01 02:06:42;;;;;;;946.83;25.58;;;;;;;8.90;95.99;92042.50;6230730;22;20021;-91
2021/05/01 02:09:30;;;;;;;1211.65;26.33;;;;;;;8.96;95.95;92049.19;6206179;23;20021;-91
2021/05/01 02:12:32;;;;;;;993.97;25.17;;;;;;;8.66;95.67;92000.88;6209758;22;20089;-91
2021/05/01 02:15:58;;;;;;;;;;;;;;;;;;;;;
2021/05/01 02:19:31;;;;;;;;;;;;;;;;;;;;;
2021/05/01 02:23:00;;;;;;;;;;;;;;;;;;;;;
2021/05/01 02:25:41;;;;;;;26.92;10.13;;;;;;;8.74;95.50;91984.56;6255581;22;20035;-92
2021/05/01 02:32:04;;;;;;;17.02;9.60;;;;;;;9.04;95.20;92029.47;6228707;22;20073;-91
2021/05/01 02:39:01;;;;;;;;;;;;;;;;;;;;;
2021/05/01 02:42:04;;;;;;;14.05;7.60;;;;;;;8.79;94.57;91996.75;6152310;23;20065;-93
2021/05/01 02:45:16;;;;;;;13.38;7.97;;;;;;;8.85;94.40;91998.22;6190061;22;20018;-93
2021/05/01 02:48:15;;;;;;;14.77;7.95;;;;;;;9.02;93.87;92025.59;6232329;22;20071;-92
2021/05/01 02:54:37;;;;;;;12.82;7.55;;;;;;;8.87;93.88;91985.66;6250241;22;20019;-90
2021/05/01 02:57:33;;;;;;;762.80;25.23;;;;;;;8.85;94.04;91992.19;6217805;22;20060;-92
2021/05/01 03:00:30;;;;;;;;;;;;;;;;;;;;;
2021/05/01 03:03:46;;;;;;;15.90;9.23;;;;;;;8.81;94.24;91986.03;6233691;22;20018;-91
2021/05/01 03:06:36;;;;;;;16.17;8.63;;;;;;;8.88;93.83;91995.03;6254195;22;20021;-92
2021/05/01 03:09:46;;;;;;;;;;;;;;;;;;;;;
2021/05/01 03:12:19;;;;;;;302.52;12.63;;;;;;;8.87;94.19;91985.66;6150850;23;20029;-91
2021/05/01 03:15:19;;;;;;;1141.15;26.08;;;;;;;8.94;94.67;92003.56;6125418;23;20560;-92
2021/05/01 03:22:14;;;;;;;1057.30;22.65;;;;;;;8.69;96.22;91994.28;6213303;22;20029;-93
2021/05/01 03:25:04;;;;;;;1336.93;28.35;;;;;;;8.57;96.11;91991.38;6234346;22;20044;-92
2021/05/01 03:27:51;;;;;;;;;;;;;;;;;;;;;
2021/05/01 03:31:03;;;;;;;1908.60;42.03;;;;;;;8.53;96.57;92001.59;6229818;22;20024;-92
2021/05/01 03:33:44;;;;;;;1229.95;28.52;;;;;;;8.50;96.54;91989.88;6230964;22;20025;-92
2021/05/01 03:37:06;;;;;;;529.45;14.77;;;;;;;8.70;96.51;92006.28;6254524;22;20023;-92
2021/05/01 03:39:55;;;;;;;750.53;19.98;;;;;;;8.59;96.44;91984.03;6226601;23;20018;-92
2021/05/01 03:43:26;;;;;;;;;;;;;;;;;;;;;
2021/05/01 03:46:49;;;;;;;;;;;;;;;;;;;;;
2021/05/01 03:52:48;;;;;;;78.22;9.63;;;;;;;8.64;95.79;91986.56;6182011;22;20441;-93
2021/05/01 03:55:53;;;;;;;109.47;9.57;;;;;;;8.65;95.92;91985.50;6224168;22;20026;-94
2021/05/01 03:58:49;;;;;;;394.73;13.15;;;;;;;8.81;95.49;92012.91;6243232;22;20139;-93
2021/05/01 04:01:39;;;;;;;500.38;22.08;;;;;;;8.61;96.21;92000.19;6234074;22;20018;-92
2021/05/01 04:04:47;;;;;;;;;;;;;;;;;;;;;
2021/05/01 04:07:26;;;;;;;732.72;16.90;;;;;;;8.65;95.84;92009.00;6254266;22;20018;-93
2021/05/01 04:10:38;;;;;;;;;;;;;;;;;;;;;
2021/05/01 04:13:54;;;;;;;761.28;17.67;;;;;;;8.80;95.91;92036.66;6152605;22;20341;-93
2021/05/01 04:16:43;;;;;;;478.75;12.38;;;;;;;8.62;95.74;92010.31;6187595;22;20029;-93
2021/05/01 04:20:43;;;;;;;184.98;8.68;;;;;;;8.92;95.87;92055.28;6227236;22;20021;-92
2021/05/01 04:23:46;;;;;;;48.65;8.10;;;;;;;8.69;95.84;92009.94;6155808;23;20017;-92
2021/05/01 04:30:05;;;;;;;;;;;;;;;;;;;;;
2021/05/01 04:32:54;;;;;;;1389.88;25.35;;;;;;;8.93;96.46;92047.13;6231204;22;20053;-93
2021/05/01 04:35:55;;;;;;;;;;;;;;;;;;;;;
2021/05/01 04:39:14;;;;;;;;;;;;;;;;;;;;;
2021/05/01 04:48:47;;;;;;;;;;;;;;;;;;;;;
2021/05/01 04:51:25;;;;;;;966.88;20.60;;;;;;;8.52;97.01;92002.66;6242598;22;20056;-93
2021/05/01 04:54:02;;;;;;;1260.40;24.20;;;;;;;8.53;96.62;91996.38;6253509;22;20032;-93
2021/05/01 04:56:54;;;;;;;845.88;21.15;;;;;;;8.54;96.59;92001.31;6208721;22;20105;-93
2021/05/01 04:59:44;;;;;;;;;;;;;;;;;;;;;
2021/05/01 05:05:45;;;;;;;41.45;8.45;;;;;;;8.59;96.50;91999.69;6221577;22;20473;-91
2021/05/01 05:09:05;;;;;;;;;;;;;;;;;;;;;
2021/05/01 05:12:44;;;;;;;15.35;7.78;;;;;;;8.77;96.27;92011.16;6203699;22;20382;-93
2021/05/01 05:15:32;;;;;;;14.23;8.00;;;;;;;8.88;95.93;92018.53;6166796;23;20021;-91
2021/05/01 05:26:23;;;;;;;;;;;;;;;;;;;;;
2021/05/01 05:29:55;;;;;;;11.05;6.97;;;;;;;9.07;94.81;92041.94;6258572;22;20018;-94
2021/05/01 05:39:58;;;;;;;13.52;7.70;;;;;;;8.99;94.39;92005.31;6231389;22;20047;-95
2021/05/01 05:43:38;;;;;;;;;;;;;;;;;;;;;
2021/05/01 05:50:35;;;;;;;14.20;7.75;;;;;;;9.34;94.22;92035.22;6190660;22;20753;-92
2021/05/01 05:54:34;;;;;;;10.20;5.88;;;;;;;9.09;93.77;91998.06;6205141;22;20029;-93
2021/05/01 05:57:57;;;;;;;;;;;;;;;;;;;;;
2021/05/01 06:01:17;;;;;;;12.73;6.55;;;;;;;9.39;93.68;92037.78;6181689;23;20377;-92
2021/05/01 06:05:03;;;;;;;;;;;;;;;;;;;;;
2021/05/01 06:08:51;;;;;;;209.25;9.13;;;;;;;9.31;94.06;92046.25;6101376;23;20052;-92
2021/05/01 06:12:21;;;;;;;;;;;;;;;;;;;;;
2021/05/01 06:22:55;;;;;;;11.93;6.13;;;;;;;9.56;93.99;92047.63;6154290;22;20021;-93
2021/05/01 06:30:15;;;;;;;9.20;5.40;;;;;;;9.30;93.51;92008.94;6165490;22;20022;-93
2021/05/01 06:52:04;;;;;;;;;;;;;;;;;;;;;
2021/05/01 07:03:01;;;;;;;;;;;;;;;;;;;;;
2021/05/01 07:06:52;;;;;;;6.10;3.55;;;;;;;9.21;93.01;92038.59;6156796;22;20073;-94
2021/05/01 07:10:16;;;;;;;8.15;4.68;;;;;;;9.13;92.31;92013.94;6201861;22;20081;-94
2021/05/01 07:18:17;;;;;;;;;;;;;;;;;;;;;
2021/05/01 07:21:29;;;;;;;5.22;3.40;;;;;;;9.07;90.73;92002.00;6139618;23;20014;-92
2021/05/01 07:32:30;;;;;;;306.15;7.93;;;;;;;8.88;95.55;92033.41;6250501;22;20017;-93
2021/05/01 07:35:51;;;;;;;8.32;3.40;;;;;;;8.70;94.27;92003.69;6230765;22;20022;-93
2021/05/01 07:39:50;;;;;;;6.75;3.60;;;;;;;9.01;94.17;92047.56;6227742;22;20459;-93
2021/05/01 07:46:38;;;;;;;5.93;3.55;;;;;;;8.93;93.61;92026.25;6151107;22;20029;-92
2021/05/01 07:50:20;;;;;;;;;;;;;;;;;;;;;
2021/05/01 08:00:43;;;;;;;;;;;;;;;;;;;;;
2021/05/01 08:04:11;;;;;;;10.27;5.82;;;;;;;8.69;94.36;91999.50;6147270;22;20014;-94
2021/05/01 08:17:31;;;;;;;10.30;6.22;;;;;;;8.99;94.31;92060.13;6136956;23;20436;-94
2021/05/01 08:20:48;;;;;;;13.05;7.57;;;;;;;8.99;94.05;92065.34;6129670;22;20045;-93
2021/05/01 08:35:46;;;;;;;13.63;8.27;;;;;;;9.20;92.88;92030.00;6128821;23;20104;-92
2021/05/01 08:42:35;;;;;;;12.57;8.23;;;;;;;9.61;91.11;92020.63;6180973;22;20017;-93
2021/05/01 08:53:11;;;;;;;;;;;;;;;;;;;;;
2021/05/01 09:04:16;;;;;;;11.93;7.20;;;;;;;9.81;88.97;92009.78;5972266;23;20017;-92
2021/05/01 09:07:16;;;;;;;11.40;6.78;;;;;;;9.85;89.35;92007.38;5936432;23;20072;-93
2021/05/01 09:11:06;;;;;;;;;;;;;;;;;;;;;
2021/05/01 09:14:42;;;;;;;;;;;;;;;;;;;;;
2021/05/01 09:18:04;;;;;;;;;;;;;;;;;;;;;
2021/05/01 09:28:20;;;;;;;;;;;;;;;;;;;;;
2021/05/01 09:43:00;;;;;;;;;;;;;;;;;;;;;
2021/05/01 09:49:14;;;;;;;12.02;8.27;;;;;;;9.97;88.03;91990.13;6089523;23;20020;-90
2021/05/01 09:55:44;;;;;;;15.45;8.60;;;;;;;10.40;88.78;92013.28;6176331;23;20017;-89
2021/05/01 10:05:07;;;;;;;11.27;7.57;;;;;;;10.46;87.14;91998.22;6152443;23;20017;-90
2021/05/01 10:08:17;;;;;;;;;;;;;;;;;;;;;
2021/05/01 10:11:07;;;;;;;;;;;;;;;;;;;;;
2021/05/01 10:21:49;;;;;;;;;;;;;;;;;;;;;
2021/05/01 10:29:00;;;;;;;;;;;;;;;;;;;;;
2021/05/01 10:32:31;;;;;;;10.65;7.85;;;;;;;10.62;88.45;91959.38;6120534;23;20082;-94
2021/05/01 10:35:54;;;;;;;;;;;;;;;;;;;;;
2021/05/01 12:01:55;;;;;;;;;;;;;;;;;;;;;
2021/05/01 12:05:17;;;;;;;10.07;7.28;;;;;;;9.95;90.38;91858.09;6143187;23;20075;-91
2021/05/01 12:13:14;;;;;;;;;;;;;;;;;;;;;
2021/05/01 12:16:24;;;;;;;11.65;7.68;;;;;;;9.82;89.07;91791.75;6137110;23;20104;-91
2021/05/01 12:19:50;;;;;;;;;;;;;;;;;;;;;
2021/05/01 12:23:08;;;;;;;;;;;;;;;;;;;;;
2021/05/01 12:26:09;;;;;;;;;;;;;;;;;;;;;
2021/05/01 12:33:36;;;;;;;12.32;6.25;;;;;;;10.24;87.34;91788.91;6154968;22;20104;-94
2021/05/01 12:37:02;;;;;;;8.45;4.80;;;;;;;10.01;85.66;91750.50;6235552;22;20024;-92
2021/05/01 12:40:34;;;;;;;8.48;5.00;;;;;;;9.87;87.71;91757.66;6222687;22;20028;-93
2021/05/01 12:44:46;;;;;;;;;;;;;;;;;;;;;
2021/05/01 12:48:36;;;;;;;;;;;;;;;;;;;;;
2021/05/01 12:52:00;;;;;;;;;;;;;;;;;;;;;
2021/05/01 12:55:19;;;;;;;;;;;;;;;;;;;;;
2021/05/01 13:02:11;;;;;;;;;;;;;;;;;;;;;
2021/05/01 13:16:35;;;;;;;;;;;;;;;;;;;;;
2021/05/01 13:19:53;;;;;;;11.75;7.95;;;;;;;9.09;93.54;91788.41;6268431;22;20021;-92
2021/05/01 13:27:02;;;;;;;12.60;9.73;;;;;;;9.07;94.55;91774.88;6243055;22;20143;-92
2021/05/01 13:34:02;;;;;;;;;;;;;;;;;;;;;
2021/05/01 13:44:43;;;;;;;9.60;5.47;;;;;;;9.04;92.59;91765.03;6230234;22;20018;-92
2021/05/01 13:47:37;;;;;;;;;;;;;;;;;;;;;
2021/05/01 13:51:12;;;;;;;;;;;;;;;;;;;;;
2021/05/01 13:58:12;;;;;;;16.17;10.07;;;;;;;9.35;91.05;91762.53;6238335;22;20019;-92
2021/05/01 14:01:31;;;;;;;;;;;;;;;;;;;;;
2021/05/01 14:08:57;;;;;;;9.63;5.50;;;;;;;9.75;91.73;91794.78;6222521;23;20444;-92
2021/05/01 14:20:01;;;;;;;10.40;5.40;;;;;;;9.34;91.79;91768.81;6006661;23;20111;-92
2021/05/01 14:23:35;;;;;;;15.68;9.65;;;;;;;9.43;92.20;91792.38;6113387;23;20453;-92
2021/05/01 14:34:09;;;;;;;;;;;;;;;;;;;;;
2021/05/01 14:37:37;;;;;;;8.55;5.63;;;;;;;9.06;91.86;91762.91;6222417;23;20027;-92
2021/05/01 14:44:18;;;;;;;96.80;38.85;;;;;;;8.85;93.95;91739.03;6127535;23;20073;-93
2021/05/01 14:48:13;;;;;;;;;;;;;;;;;;;;;
2021/05/01 15:05:25;;;;;;;;;;;;;;;;;;;;;
2021/05/01 15:15:11;;;;;;;10.43;7.22;;;;;;;9.32;90.33;91760.47;6118665;23;20060;-92
2021/05/01 15:19:12;;;;;;;11.00;7.40;;;;;;;8.86;92.59;91736.16;6154808;23;20028;-92
2021/05/01 15:22:14;;;;;;;;;;;;;;;;;;;;;
2021/05/01 15:25:44;;;;;;;7.13;5.55;;;;;;;8.90;93.03;91728.50;6128789;23;20509;-92
2021/05/01 15:29:37;;;;;;;;;;;;;;;;;;;;;
2021/05/01 17:03:34;;;;;;;;;;;;;;;;;;;;;
2021/05/01 17:10:39;;;;;;;;;;;;;;;;;;;;;
2021/05/01 17:13:32;;;;;;;5.45;2.85;;;;;;;8.25;89.71;91555.59;6272274;22;20016;-94
2021/05/01 17:16:45;;;;;;;6.72;3.42;;;;;;;8.62;89.37;91603.31;6269103;22;20016;-94
2021/05/01 19:50:02;;;;;;;;;;;;;;;;;;;;;
2021/05/01 20:02:22;;;;;;;;;;;;;;;;;;;;;
2021/05/01 20:22:22;;;;;;;2.38;1.10;;;;;;;7.26;88.36;91575.22;5912336;24;20028;-90
2021/05/01 20:25:59;;;;;;;;;;;;;;;;;;;;;
2021/05/01 20:29:10;;;;;;;2.35;1.17;;;;;;;7.36;88.45;91606.28;5968857;23;20514;-90
2021/05/01 20:31:51;;;;;;;1.48;1.00;;;;;;;7.04;88.69;91568.06;6089249;23;20030;-91
2021/05/01 20:34:27;;;;;;;;;;;;;;;;;;;;;
2021/05/01 20:37:26;;;;;;;;;;;;;;;;;;;;;
2021/05/01 20:40:23;;;;;;;;;;;;;;;;;;;;;
2021/05/01 20:43:19;;;;;;;2.58;1.00;;;;;;;6.86;90.25;91567.81;6277313;22;20019;-91
2021/05/01 20:46:29;;;;;;;1.52;0.90;;;;;;;7.06;90.49;91591.97;6254025;22;20020;-92
2021/05/01 20:49:54;;;;;;;;;;;;;;;;;;;;;
2021/05/01 20:53:06;;;;;;;0.85;0.70;;;;;;;7.01;91.57;91579.81;6292776;22;20447;-91
2021/05/01 20:56:04;;;;;;;0.93;0.70;;;;;;;6.79;91.28;91549.22;6261342;22;20058;-91
2021/05/01 20:59:25;;;;;;;1.40;0.93;;;;;;;6.98;91.70;91571.78;6270922;22;20022;-91
2021/05/01 21:02:14;;;;;;;1.10;0.90;;;;;;;6.79;92.13;91543.25;6269039;22;20011;-90
2021/05/01 21:04:57;;;;;;;;;;;;;;;;;;;;;
2021/05/01 21:07:36;;;;;;;1.00;0.80;;;;;;;6.78;91.80;91547.69;6307406;22;20091;-90
2021/05/01 21:10:20;;;;;;;1.13;0.90;;;;;;;6.91;91.80;91574.00;6257225;22;20015;-91
2021/05/01 21:13:15;;;;;;;1.00;0.90;;;;;;;6.77;91.92;91569.53;6284826;22;20007;-90
2021/05/01 21:16:06;;;;;;;1.58;1.02;;;;;;;6.71;91.60;91565.47;6279378;22;20073;-91
2021/05/01 21:18:58;;;;;;;1.27;1.00;;;;;;;6.79;91.81;91577.06;6254220;22;20497;-90
2021/05/01 21:21:34;;;;;;;;;;;;;;;;;;;;;
2021/05/01 21:24:26;;;;;;;1.88;1.17;;;;;;;6.75;92.50;91558.63;6281979;22;20091;-91
2021/05/01 21:27:21;;;;;;;1.77;1.15;;;;;;;6.76;92.06;91573.19;6262353;22;20098;-90
2021/05/01 21:30:34;;;;;;;1.42;0.98;;;;;;;6.77;92.69;91563.56;6279525;22;20018;-91
2021/05/01 21:33:31;;;;;;;1.02;0.90;;;;;;;6.80;92.67;91579.38;6284711;22;20094;-91
2021/05/01 21:36:20;;;;;;;1.63;1.00;;;;;;;6.78;92.52;91578.88;6255977;22;20041;-91
2021/05/01 21:39:21;;;;;;;1.35;1.00;;;;;;;6.79;92.05;91579.66;6262088;22;20094;-91
2021/05/01 21:42:05;;;;;;;1.63;0.90;;;;;;;6.80;92.33;91578.59;6286131;22;20663;-91
2021/05/01 21:45:14;;;;;;;;;;;;;;;;;;;;;
2021/05/01 21:48:03;;;;;;;;;;;;;;;;;;;;;
2021/05/01 21:51:10;;;;;;;1.00;0.90;;;;;;;6.80;92.74;91583.78;6279702;22;20030;-91
2021/05/01 21:53:59;;;;;;;;;;;;;;;;;;;;;
2021/05/01 21:59:30;;;;;;;1.10;1.00;;;;;;;6.83;92.92;91589.22;6257344;22;20027;-89
2021/05/01 22:02:38;;;;;;;;;;;;;;;;;;;;;
2021/05/01 22:05:31;;;;;;;;;;;;;;;;;;;;;
2021/05/01 22:08:36;;;;;;;171.00;5.40;;;;;;;6.82;93.23;91603.28;6288118;22;20076;-91
2021/05/01 22:11:40;;;;;;;2.35;1.20;;;;;;;6.84;92.45;91598.53;6255582;22;20042;-90
2021/05/01 22:14:17;;;;;;;2.42;1.35;;;;;;;6.72;93.05;91595.63;6260800;22;20027;-91
2021/05/01 22:17:32;;;;;;;25.77;2.30;;;;;;;6.72;93.17;91589.66;6307749;22;20070;-91
2021/05/01 22:24:28;;;;;;;68.30;4.13;;;;;;;6.74;93.50;91614.31;6279838;22;20015;-91
2021/05/01 22:27:05;;;;;;;10.05;2.83;;;;;;;6.62;94.00;91614.75;6279990;22;20030;-90
2021/05/01 22:32:57;;;;;;;2.97;1.77;;;;;;;6.45;93.84;91593.69;6280597;22;20060;-91
2021/05/01 22:35:52;;;;;;;2.97;1.90;;;;;;;6.74;94.00;91632.53;6280770;22;20086;-90
2021/05/01 22:38:44;;;;;;;;;;;;;;;;;;;;;
2021/05/01 22:41:21;;;;;;;3.47;2.30;;;;;;;6.50;94.24;91593.59;6307928;22;20423;-91
2021/05/01 22:44:04;;;;;;;3.85;2.20;;;;;;;6.65;93.97;91610.81;6255102;22;20018;-91
2021/05/01 22:47:12;;;;;;;3.90;2.35;;;;;;;6.75;94.06;91622.88;6256107;22;20015;-91
2021/05/01 22:50:16;;;;;;;;;;;;;;;;;;;;;
2021/05/01 22:53:00;;;;;;;2.53;1.40;;;;;;;6.61;93.49;91592.41;6287552;22;20034;-91
2021/05/01 22:55:34;;;;;;;1.17;1.00;;;;;;;6.58;93.46;91587.00;6281589;22;20030;-91
2021/05/01 22:58:31;;;;;;;;;;;;;;;;;;;;;
2021/05/01 23:01:10;;;;;;;1.83;1.35;;;;;;;6.73;93.21;91599.75;6279959;22;20015;-92
2021/05/01 23:04:02;;;;;;;0.55;0.55;;;;;;;6.67;91.50;91585.31;6283063;22;20094;-91
2021/05/01 23:06:55;;;;;;;1.85;0.50;;;;;;;6.66;90.50;91583.75;6268101;22;20077;-91
2021/05/01 23:09:40;;;;;;;0.30;0.30;;;;;;;6.84;85.66;91613.38;6274818;22;20026;-91
2021/05/01 23:12:34;;;;;;;0.63;0.50;;;;;;;6.63;85.20;91581.72;6254304;22;20046;-91
2021/05/01 23:15:46;;;;;;;0.30;0.30;;;;;;;6.56;84.92;91583.91;6283396;22;20030;-89
2021/05/01 23:18:35;;;;;;;0.40;0.40;;;;;;;6.75;85.04;91615.84;6280048;22;20015;-90
2021/05/01 23:21:14;;;;;;;0.40;0.40;;;;;;;6.70;85.23;91610.72;6293292;22;20109;-90
2021/05/01 23:24:23;;;;;;;;;;;;;;;;;;;;;
2021/05/01 23:30:52;;;;;;;0.30;0.30;;;;;;;6.79;83.39;91619.44;6272305;22;20021;-91
2021/05/01 23:33:49;;;;;;;1.15;0.40;;;;;;;6.45;83.23;91578.84;6273100;22;20432;-91
2021/05/01 23:36:54;;;;;;;1.45;0.40;;;;;;;6.44;83.51;91582.50;6254336;22;20137;-91
2021/05/01 23:39:39;;;;;;;0.30;0.30;;;;;;;6.56;82.80;91604.72;6254883;22;20026;-91
2021/05/01 23:42:37;;;;;;;0.30;0.30;;;;;;;6.34;83.13;91569.66;6282745;22;20142;-91
2021/05/01 23:45:31;;;;;;;0.40;0.40;;;;;;;6.35;82.74;91573.00;6280690;22;20082;-92
2021/05/01 23:48:13;;;;;;;0.30;0.30;;;;;;;6.37;82.90;91573.50;6279630;22;20012;-91
2021/05/01 23:51:01;;;;;;;0.40;0.40;;;;;;;6.44;83.84;91582.50;6283658;22;20094;-91
2021/05/01 23:53:49;;;;;;;0.30;0.30;;;;;;;6.35;85.58;91563.41;6306882;22;20078;-90
2021/05/01 23:56:16;;;;;;;0.30;0.30;;;;;;;6.42;87.55;91579.41;6254084;22;20026;-90
2021/05/01 23:59:36;;;;;;;0.57;0.45;;;;;;;6.37;87.59;91586.50;6254244;22;20509;-90
